Portada
METAR-TAF:

METAR-TAF

Aeroports :

Nan, Tailàndia

latitud: 18-46N, longitud: 100-46E, altitud: 200 m

Observació

L'informe es va fer fa 1 hora i 3 minuts, a les 10:00 UTC
Vent 5 kt del Sud-Oest
Temperatura 32°C
Humitat 20%
Pressió 1006 hPa
Visibilitat: 9000 m
Escasses núvols a una alçada de 4000 ft

METAR: VTCN 251000Z 22005KT 9000 FEW040 32/06 Q1006 NOSIG

Hora: 18:03 (11:03 UTC)

Pronòstic

L'informe es va fer fa 6 hores i 3 minuts, a les 05:00 UTC
Pronòstic vàlid del 25 a les 06 UTC al 26 a les 06 UTC
Vent 5 kt del Sud-Oest
Visibilitat 10 km o més
sense núvols per sota de 1500 mi sense presència de cumulonimbus.

TAF: VTCN 250500Z 2506/2606 22005KT CAVOK

Observacions i pronòstics meteorològics de més de 4000 aeroports (METAR i TAF).

Les estacions disponibles són els punts grocs i vermells al mapa.

Posi el ratolí al punt desitjat per veure el nom de l'estació.

Feu clic per veure les observacions i els pronòstics meteorològics.

Per canviar el mapa: feu clic els botons verds amb una creu de color negre per apropar; al botó verd amb un guió per allunyar la imatge; o en les fletxes verdes per a mapes adjacents.


METAR-TAF: